TimeEST,TemperatureF,Dew PointF,Humidity,Sea Level PressureIn,VisibilityMPH,Wind Direction,Wind SpeedMPH,Gust SpeedMPH,PrecipitationIn,Events,Conditions,WindDirDegrees,DateUTC
12:18 AM,-2.2,-5.8,85,30.21,10.0,Calm,Calm,-,N/A,,Clear,0,2013-02-18 05:18:00
12:38 AM,-0.4,-4.0,85,30.20,10.0,Calm,Calm,-,N/A,,Clear,0,2013-02-18 05:38:00
12:58 AM,-0.4,-5.8,78,30.21,10.0,Calm,Calm,-,N/A,,Clear,0,2013-02-18 05:58:00
1:18 AM,-0.4,-5.8,78,30.22,10.0,Calm,Calm,-,N/A,,Clear,0,2013-02-18 06:18:00
1:38 AM,-2.2,-5.8,85,30.22,10.0,Calm,Calm,-,N/A,,Clear,0,2013-02-18 06:38:00
1:58 AM,-2.2,-5.8,85,30.22,10.0,Calm,Calm,-,N/A,,Clear,0,2013-02-18 06:58:00
2:18 AM,-2.2,-5.8,85,30.22,10.0,Calm,Calm,-,N/A,,Clear,0,2013-02-18 07:18:00
2:38 AM,1.4,-4.0,78,30.22,10.0,Calm,Calm,-,N/A,,Clear,0,2013-02-18 07:38:00
2:58 AM,5.0,-0.4,78,30.21,10.0,Calm,Calm,-,N/A,,Clear,0,2013-02-18 07:58:00
3:18 AM,5.0,1.4,85,30.20,10.0,SE,3.5,-,N/A,,Clear,140,2013-02-18 08:18:00
3:38 AM,10.4,5.0,79,30.19,10.0,SE,5.8,-,N/A,,Scattered Clouds,140,2013-02-18 08:38:00
3:58 AM,10.4,3.2,73,30.19,10.0,SSE,3.5,-,N/A,,Clear,160,2013-02-18 08:58:00
4:18 AM,10.4,3.2,73,30.19,10.0,SE,3.5,-,N/A,,Clear,140,2013-02-18 09:18:00
4:38 AM,10.4,3.2,73,30.19,10.0,SE,3.5,-,N/A,,Clear,130,2013-02-18 09:38:00
4:58 AM,14.0,6.8,73,30.19,10.0,SE,4.6,-,N/A,,Clear,140,2013-02-18 09:58:00
5:18 AM,14.0,6.8,73,30.19,10.0,SE,3.5,-,N/A,,Clear,140,2013-02-18 10:18:00
5:38 AM,14.0,6.8,73,30.18,10.0,SE,5.8,-,N/A,,Clear,130,2013-02-18 10:38:00
5:58 AM,15.8,8.6,73,30.17,10.0,SE,6.9,-,N/A,,Clear,140,2013-02-18 10:58:00
6:18 AM,15.8,10.4,79,30.16,10.0,SE,6.9,-,N/A,,Clear,140,2013-02-18 11:18:00
6:38 AM,15.8,10.4,79,30.16,10.0,SE,5.8,-,N/A,,Clear,140,2013-02-18 11:38:00
6:58 AM,15.8,10.4,79,30.15,10.0,SE,5.8,-,N/A,,Clear,140,2013-02-18 11:58:00
7:38 AM,17.6,12.2,79,30.14,10.0,SSE,6.9,-,N/A,,Scattered Clouds,150,2013-02-18 12:38:00
7:58 AM,19.4,14.0,80,30.13,10.0,SE,6.9,-,N/A,,Scattered Clouds,140,2013-02-18 12:58:00
8:18 AM,21.2,14.0,74,30.12,10.0,SE,9.2,-,N/A,,Overcast,140,2013-02-18 13:18:00
8:38 AM,21.2,15.8,80,30.12,10.0,SSE,9.2,-,N/A,,Overcast,150,2013-02-18 13:38:00
8:58 AM,23.0,15.8,74,30.11,10.0,SSE,11.5,-,N/A,,Overcast,150,2013-02-18 13:58:00
9:18 AM,23.0,17.6,80,30.10,10.0,SSE,11.5,-,N/A,,Overcast,150,2013-02-18 14:18:00
9:38 AM,24.8,17.6,74,30.09,10.0,SSE,16.1,-,N/A,,Overcast,150,2013-02-18 14:38:00
9:58 AM,24.8,17.6,74,30.07,10.0,SSE,15.0,23.0,N/A,,Mostly Cloudy,160,2013-02-18 14:58:00
10:18 AM,26.6,17.6,69,30.07,10.0,SSE,19.6,23.0,N/A,,Scattered Clouds,160,2013-02-18 15:18:00
10:38 AM,26.6,17.6,69,30.05,10.0,SSE,16.1,28.8,N/A,,Scattered Clouds,160,2013-02-18 15:38:00
10:58 AM,28.4,17.6,64,30.05,10.0,SSE,13.8,19.6,N/A,,Clear,160,2013-02-18 15:58:00
11:18 AM,28.4,17.6,64,30.04,10.0,SSE,16.1,23.0,N/A,,Clear,150,2013-02-18 16:18:00
11:38 AM,28.4,17.6,64,30.03,10.0,SSE,15.0,20.7,N/A,,Clear,150,2013-02-18 16:38:00
11:58 AM,28.4,17.6,64,30.01,10.0,SSE,11.5,20.7,N/A,,Clear,150,2013-02-18 16:58:00
12:18 PM,28.4,19.4,69,29.99,10.0,SE,15.0,23.0,N/A,,Clear,140,2013-02-18 17:18:00
12:38 PM,30.2,19.4,64,29.98,10.0,SE,16.1,21.9,N/A,,Clear,140,2013-02-18 17:38:00
12:58 PM,30.2,19.4,64,29.97,10.0,SSE,17.3,21.9,N/A,,Clear,160,2013-02-18 17:58:00
1:18 PM,30.2,19.4,64,29.96,10.0,SSE,13.8,26.5,N/A,,Clear,150,2013-02-18 18:18:00
1:38 PM,30.2,19.4,64,29.95,10.0,SSE,15.0,24.2,N/A,,Clear,160,2013-02-18 18:38:00
1:58 PM,32.0,19.4,60,29.93,7.0,South,19.6,27.6,N/A,,Clear,170,2013-02-18 18:58:00
2:18 PM,32.0,19.4,60,29.92,10.0,South,15.0,27.6,N/A,,Clear,170,2013-02-18 19:18:00
2:38 PM,32.0,21.2,64,29.91,10.0,SSE,17.3,25.3,N/A,,Clear,160,2013-02-18 19:38:00
2:58 PM,32.0,21.2,64,29.91,10.0,SSE,16.1,23.0,N/A,,Clear,150,2013-02-18 19:58:00
3:18 PM,32.0,21.2,64,29.90,10.0,SSE,12.7,26.5,N/A,,Clear,150,2013-02-18 20:18:00
3:38 PM,33.8,21.2,60,29.89,10.0,SSE,16.1,24.2,N/A,,Clear,150,2013-02-18 20:38:00
3:58 PM,33.8,21.2,60,29.88,10.0,SSE,10.4,26.5,N/A,,Clear,150,2013-02-18 20:58:00
4:18 PM,33.8,23.0,65,29.85,10.0,SSE,17.3,25.3,N/A,,Clear,150,2013-02-18 21:18:00
4:38 PM,33.8,23.0,65,29.84,10.0,SSE,17.3,24.2,N/A,,Clear,150,2013-02-18 21:38:00
4:58 PM,33.8,23.0,65,29.84,10.0,SSE,13.8,23.0,N/A,,Clear,160,2013-02-18 21:58:00
5:18 PM,33.8,23.0,65,29.82,10.0,SSE,16.1,20.7,N/A,,Clear,150,2013-02-18 22:18:00
5:38 PM,33.8,24.8,70,29.81,10.0,SSE,11.5,19.6,N/A,,Clear,150,2013-02-18 22:38:00
6:18 PM,35.6,24.8,65,29.81,10.0,South,12.7,17.3,N/A,,Clear,170,2013-02-18 23:18:00
6:38 PM,35.6,26.6,70,29.80,10.0,South,11.5,17.3,N/A,,Clear,170,2013-02-18 23:38:00
6:58 PM,37.4,26.6,65,29.79,10.0,SSE,12.7,17.3,N/A,,Mostly Cloudy,160,2013-02-18 23:58:00
7:18 PM,37.4,26.6,65,29.79,10.0,SSE,13.8,18.4,N/A,,Overcast,160,2013-02-19 00:18:00
7:38 PM,39.2,28.4,65,29.79,10.0,SSE,10.4,17.3,N/A,,Overcast,160,2013-02-19 00:38:00
7:58 PM,39.2,28.4,65,29.78,10.0,SSE,10.4,-,N/A,,Overcast,160,2013-02-19 00:58:00
8:18 PM,39.2,28.4,65,29.77,10.0,SSE,11.5,-,N/A,,Overcast,160,2013-02-19 01:18:00
8:38 PM,39.2,28.4,65,29.76,10.0,SSE,11.5,16.1,N/A,,Overcast,160,2013-02-19 01:38:00
9:18 PM,39.2,30.2,70,29.73,10.0,SSE,11.5,-,N/A,,Scattered Clouds,150,2013-02-19 02:18:00
9:38 PM,39.2,30.2,70,29.72,10.0,SSE,9.2,-,N/A,,Clear,150,2013-02-19 02:38:00
9:58 PM,39.2,30.2,70,29.70,10.0,South,9.2,-,N/A,,Scattered Clouds,170,2013-02-19 02:58:00
10:18 PM,41.0,30.2,65,29.69,10.0,SSE,10.4,18.4,N/A,,Light Drizzle,160,2013-02-19 03:18:00
10:38 PM,41.0,32.0,70,29.69,10.0,South,11.5,-,N/A,Rain,Light Rain,170,2013-02-19 03:38:00
10:58 PM,41.0,32.0,70,29.69,10.0,South,8.1,-,N/A,Rain,Light Rain,170,2013-02-19 03:58:00
11:18 PM,41.0,32.0,70,29.67,10.0,SSE,10.4,-,N/A,Rain,Rain,160,2013-02-19 04:18:00
11:58 PM,41.0,32.0,70,29.64,10.0,South,11.5,-,N/A,,Overcast,170,2013-02-19 04:58:00